Impacts TAF Board
For situational awareness. Not to be used for flight planning purposes.
IDs:

KXNA - Fayetteville/NW Arka, AR, US

Issued at 1721 UTC 21 May 2022
Updated at 2242 UTC 21 May 2022
Potential Impact None Slight Moderate High
Time2153Z 21/23Z 22/00Z 22/01Z 22/02Z 22/03Z 22/04Z 22/05Z 22/06Z 22/07Z 22/08Z 22/09Z 22/10Z 22/11Z>>
Type OBS PRVL PRVL PRVL PRVL PRVL PRVL PRVL PRVL PRVL PRVL PRVL PRVL PRVL
VIS 7 >6 >6 >6 >6 >6 >6 >6 >6 >6 >6 >6 >6 >6
CIG 7 7 7 7 7 15 15 15 15 50 50 50 50 50
Cover OVC OVC OVC OVC OVC BKN BKN BKN BKN BKN BKN BKN BKN BKN
FltCat IFR IFR IFR IFR IFR MVFR MVFR MVFR MVFR VFR VFR VFR VFR VFR
WX -- VCSH VCSH VCSH VCSH -- -- -- -- -- -- -- -- --
WDir 360 350 350 350 350 10 10 10 10 10 10 10 10 10
WSpd 13 12 12 12 12 10 10 10 10 10 10 10 10 10
WGst 20 -- -- -- -- -- -- -- -- -- -- -- -- --
WSHgt -- -- -- -- -- -- -- -- -- -- -- -- -- --
WSDir -- -- -- -- -- -- -- -- -- -- -- -- -- --
WSSpd -- -- -- -- -- -- -- -- -- -- -- -- -- --
R16/34
XWnd 4 2 2 2 2 5 5 5 5 5 5 5 5 5
XGst 7 -- -- -- -- -- -- -- -- -- -- -- -- --
HWnd -12 -12 -12 -12 -12 -9 -9 -9 -9 -9 -9 -9 -9 -9
HGst -19 -- -- -- -- -- -- -- -- -- -- -- -- --
R17/35
XWnd 4 2 2 2 2 5 5 5 5 5 5 5 5 5
XGst 7 -- -- -- -- -- -- -- -- -- -- -- -- --
HWnd -12 -12 -12 -12 -12 -9 -9 -9 -9 -9 -9 -9 -9 -9
HGst -19 -- -- -- -- -- -- -- -- -- -- -- -- --
Raw TAF
KXNA 211721Z 2118/2218 36009KT P6SM VCSH OVC012
  TEMPO 2118/2122 3SM -TSRA BR BKN005CB
  FM212200 35012KT P6SM VCSH OVC007
  FM220300 01010KT P6SM BKN015
  FM220700 01010KT P6SM BKN050


Raw METAR
KXNA 212153Z 36013G20KT 7SM BKN007 OVC010 13/12 A3004 RMK AO2 SLP165 T01280122
KXNA 212053Z 36009KT 3SM BR OVC006 13/12 A3002 RMK AO2 RAB28E38 CIG 004V008 SLP159 P0000 60020 T01330122 53016
KXNA 211953Z 36019G23KT 6SM BR OVC007 13/12 A3000 RMK AO2 LTG DSNT NE-SE RAE42 TSE23B33E35 CIG 005V012 SLP150 P0003 T01330122

METAR Board
Radar Display
Forecast Discussion
For situational awareness. Not to be used for flight planning purposes.